• Join FlightAware (Why Join?)
  • Login
  • US Flag 
10:07AM EDT


 

Airport Tracker/Info


-or-


 

Live Flight TrackerFlight Track Log ✈ EJA831 ✈ 10-Dec-2013 ✈ KCHA - KSTL

Flight Track Log - Related Links

Times and Time Zones

All times are in EST time to prevent confusion due to time zone crossing. See the EJA831 flight status page for this flight to view local times or setup timezone preferences in your user account.

Time Position Orientation Groundspeed Altitude Reporting Facility
EST Latitude Longitude Course Direction KTS MPH feet Rate Location/Type
07:01AM 35.0603 -85.1928 351° North 225 259 2,500  Level Memphis Center
07:02AM 35.1206 -85.2044 351° North 231 266 5,400 3,660 Climbing Memphis Center
07:03AM 35.1581 -85.2542 313° West 203 234 10,000 2,280 Climbing Memphis Center
07:04AM 35.2000 -85.3156 310° West 231 266 10,000 1,020 Level Memphis Center
07:05AM 35.2406 -85.3717 312° West 222 255 12,100 1,800 Climbing Memphis Center
07:06AM 35.2847 -85.4358 310° West 238 274 13,700 2,040 Climbing Memphis Center
07:07AM 35.3394 -85.5150 310° West 290 334 16,300 2,520 Climbing Memphis Center
07:08AM 35.3931 -85.5931 310° West 297 342 18,800 2,520 Climbing Memphis Center
07:09AM 35.4478 -85.6706 311° West 299 344 21,400 2,400 Climbing Memphis Center
07:10AM 35.5006 -85.7497 309° West 299 344 23,700 2,100 Climbing Memphis Center
07:11AM 35.5561 -85.8292 311° West 303 349 25,700 1,680 Climbing Memphis Center
07:12AM 35.6114 -85.9097 310° West 306 352 27,200 1,140 Climbing Memphis Center
07:13AM 35.6617 -85.9964 306° West 320 368 28,000 540 Climbing Memphis Center
07:14AM 35.7067 -86.0964 299° West 327 376 28,300 1,140 Climbing Memphis Center
07:15AM 35.7508 -86.1964 299° West 330 380 30,400 1,980 Climbing Memphis Center
07:16AM 35.7925 -86.2861 300° West 310 357 32,400 1,560 Climbing Memphis Center
07:17AM 35.8328 -86.3733 300° West 294 338 33,600 780 Climbing Memphis Center
07:18AM 35.8753 -86.4656 300° West 301 346 34,000 -480 Climbing Memphis Center
07:19AM 35.9186 -86.5614 299° West 312 359 32,700 -1,440 Descending Memphis Center
07:20AM 35.9600 -86.6525 299° West 305 351 31,200 -1,320 Descending Memphis Center
07:21AM 36.0031 -86.7478 299° West 310 357 30,100 -600 Descending Memphis Center
07:22AM 36.0475 -86.8469 299° West 321 369 30,000 -60 Descending Memphis Center
07:23AM 36.0950 -86.9503 300° West 334 384 30,000  Level Memphis Center
07:24AM 36.1397 -87.0514 299° West 332 382 30,000  Level Memphis Center
07:25AM 36.1847 -87.1514 299° West 328 377 30,000  Level Memphis Center
07:26AM 36.2297 -87.2519 299° West 329 379 30,000  Level Memphis Center
07:27AM 36.2753 -87.3536 299° West 332 382 30,000  Level Memphis Center
07:28AM 36.3203 -87.4547 299° West 331 381 30,000  Level Memphis Center
07:29AM 36.3647 -87.5567 298° West 332 382 30,000  Level Memphis Center
07:30AM 36.4100 -87.6581 299° West 332 382 30,000  Level Memphis Center
07:31AM 36.4533 -87.7586 298° West 329 379 30,000  Level Memphis Center
07:32AM 36.4972 -87.8572 299° West 326 375 30,000  Level Memphis Center
07:33AM 36.5417 -87.9592 299° West 330 380 30,000  Level Memphis Center
07:34AM 36.5850 -88.0597 298° West 328 377 30,000  Level Memphis Center
07:35AM 36.6219 -88.1450 298° West 323 372 30,000  Level Memphis Center
07:36AM 36.6653 -88.2442 299° West 325 374 30,000  Level Memphis Center
07:37AM 36.7072 -88.3414 298° West 321 369 30,000  Level Memphis Center
07:38AM 36.7506 -88.4394 299° West 323 372 30,000  Level Memphis Center
07:39AM 36.7917 -88.5367 298° West 320 368 30,000  Level Memphis Center
07:40AM 36.8331 -88.6328 298° West 317 365 30,000  Level Memphis Center
07:41AM 36.8808 -88.7464 298° West 312 359 30,000  Level Memphis Center
07:42AM 36.9197 -88.8378 298° West 304 350 30,000  Level Memphis Center
07:43AM 36.9542 -88.9192 298° West 277 319 30,000  Level Memphis Center
07:45AM 36.9878 -88.9994 298° West 265 305 30,000  Level Memphis Center
07:46AM 37.0231 -89.0817 298° West 267 307 30,000  Level Memphis Center
07:47AM 37.0589 -89.1669 298° West 275 316 30,000  Level Memphis Center
07:48AM 37.0958 -89.2575 297° West 286 329 30,000 -480 Level Memphis Center
07:49AM 37.1358 -89.3517 298° West 301 346 29,100 -1,080 Descending Memphis Center
07:49AM 37.1669 -89.4275 297° West 303 349 28,100 -1,320 Descending Kansas City Center
07:50AM 37.2058 -89.5217 297° West 304 350 26,700 -1,080 Descending Kansas City Center
07:51AM 37.2672 -89.6003 314° West 337 388 26,000 -360 Descending Kansas City Center
07:52AM 37.3653 -89.6469 339° North 372 428 26,000 -780 Level Kansas City Center
07:53AM 37.4603 -89.7003 336° Northwest 373 429 24,500 -1,680 Descending Kansas City Center
07:54AM 37.5514 -89.7494 337° Northwest 361 415 22,700 -1,980 Descending Kansas City Center
07:55AM 37.6500 -89.8039 336° Northwest 347 399 20,600 -1,860 Descending Kansas City Center
07:56AM 37.7278 -89.8475 336° Northwest 314 361 19,000 -1,440 Descending Kansas City Center
07:57AM 37.8092 -89.8922 337° Northwest 318 366 17,700 -1,500 Descending Kansas City Center
07:59AM 37.8922 -89.9378 337° Northwest 305 351 16,000 -1,620 Descending Kansas City Center
08:00AM 37.9681 -89.9792 337° Northwest 298 343 14,500 -1,500 Descending Kansas City Center
08:01AM 38.0403 -90.0200 336° Northwest 287 330 13,000 -1,440 Descending Kansas City Center
08:02AM 38.1061 -90.0564 336° Northwest 284 327 11,600 -1,440 Descending Kansas City Center
08:03AM 38.1728 -90.0775 346° North 262 302 10,100 -1,500 Descending Kansas City Center
08:04AM 38.2403 -90.0925 350° North 250 288 8,600 -1,080 Descending Kansas City Center
08:05AM 38.3081 -90.1058 351° North 247 284 8,000 -300 Descending Kansas City Center
08:06AM 38.3764 -90.1219 350° North 249 287 8,000 -300 Level Kansas City Center
08:07AM 38.4600 -90.1394 351° North 254 292 7,400 -1,380 Descending Kansas City Center
08:08AM 38.5233 -90.1528 351° North 242 278 5,300 -1,740 Descending Kansas City Center
08:09AM 38.5861 -90.1667 350° North 235 270 3,900 -840 Descending Kansas City Center
08:10AM 38.6419 -90.1775 351° North 216 249 3,600 -360 Descending Kansas City Center
08:11AM 38.6769 -90.2119 322° Northwest 180 207 3,200 -720 Descending Kansas City Center
08:12AM 38.6978 -90.2561 301° West 159 183 2,200 -840 Descending Kansas City Center
08:13AM 38.7128 -90.2878 301° West 122 140 1,600 -600 Descending Kansas City Center
08:14AM 38.7278 -90.3158 304° West 104 120 1,100 -540 Descending Kansas City Center
08:15AM 38.7439 -90.3503 301° West 103 119 600 -540 Descending Kansas City Center